createdAt,value
2018-03-14T00:00:01.630Z,95.82
2018-03-14T00:02:27.849Z,95.69
2018-03-14T00:04:54.086Z,95.80
2018-03-14T00:07:20.267Z,96.11
2018-03-14T00:09:46.461Z,95.93
2018-03-14T00:12:12.624Z,96.15
2018-03-14T00:14:38.876Z,96.32
2018-03-14T00:17:05.016Z,96.45
2018-03-14T00:19:31.177Z,96.45
2018-03-14T00:21:57.385Z,96.52
2018-03-14T00:24:23.656Z,96.57
2018-03-14T00:26:50.791Z,96.55
2018-03-14T00:29:17.000Z,96.65
2018-03-14T00:31:43.797Z,96.95
2018-03-14T00:34:10.002Z,96.91
2018-03-14T00:36:36.192Z,96.89
2018-03-14T00:39:02.519Z,96.98
2018-03-14T00:41:28.677Z,97.04
2018-03-14T00:43:54.892Z,96.92
2018-03-14T00:46:21.077Z,96.96
2018-03-14T00:48:47.230Z,97.17
2018-03-14T00:51:13.427Z,97.32
2018-03-14T00:53:39.634Z,97.50
2018-03-14T00:56:05.803Z,97.65
2018-03-14T00:58:32.060Z,97.83
2018-03-14T01:00:58.238Z,97.91
2018-03-14T01:03:24.416Z,97.95
2018-03-14T01:05:50.647Z,97.96
2018-03-14T01:08:16.800Z,98.06
2018-03-14T01:10:42.993Z,98.37
2018-03-14T01:13:09.196Z,98.53
2018-03-14T01:15:35.397Z,98.66
2018-03-14T01:18:01.608Z,98.84
2018-03-14T01:20:27.774Z,98.94
2018-03-14T01:22:53.931Z,98.94
2018-03-14T01:25:20.156Z,98.94
2018-03-14T01:27:46.388Z,98.89
2018-03-14T01:30:12.553Z,98.91
2018-03-14T01:32:38.750Z,98.86
2018-03-14T01:35:05.004Z,98.65
2018-03-14T01:37:31.170Z,98.35
2018-03-14T01:39:57.347Z,98.04
2018-03-14T01:42:23.545Z,97.90
2018-03-14T01:44:49.745Z,97.90
2018-03-14T01:47:15.983Z,97.88
2018-03-14T01:49:42.135Z,97.82
2018-03-14T01:52:08.293Z,97.50
2018-03-14T01:54:34.517Z,97.48
2018-03-14T01:57:00.727Z,97.63
2018-03-14T01:59:26.884Z,97.56
2018-03-14T02:01:53.070Z,97.62
2018-03-14T02:04:19.275Z,97.85
2018-03-14T02:06:45.419Z,97.93
2018-03-14T02:09:11.595Z,98.09
2018-03-14T02:11:37.808Z,98.19
2018-03-14T02:14:04.053Z,98.12
2018-03-14T02:16:30.206Z,97.92
2018-03-14T02:18:56.461Z,98.02
2018-03-14T02:21:22.605Z,98.19
2018-03-14T02:23:48.773Z,98.41
2018-03-14T02:26:14.995Z,98.49
2018-03-14T02:28:41.193Z,98.88
2018-03-14T02:31:07.337Z,98.82
2018-03-14T02:33:33.536Z,98.94
2018-03-14T02:35:59.785Z,98.73
2018-03-14T02:38:25.923Z,98.80
2018-03-14T02:40:52.149Z,98.67
2018-03-14T02:43:18.315Z,98.64
2018-03-14T02:45:44.532Z,98.72
2018-03-14T02:48:10.690Z,98.86
2018-03-14T02:50:36.837Z,98.94
2018-03-14T02:53:03.029Z,98.92
2018-03-14T02:55:29.210Z,98.74
2018-03-14T02:57:55.360Z,98.94
2018-03-14T03:00:21.536Z,99.07
2018-03-14T03:02:47.650Z,99.15
2018-03-14T03:05:13.820Z,99.02
2018-03-14T03:07:40.008Z,99.08
2018-03-14T03:10:06.146Z,99.15
2018-03-14T03:12:32.275Z,99.32
2018-03-14T03:14:58.587Z,99.28
2018-03-14T03:17:24.780Z,99.33
2018-03-14T03:19:50.912Z,99.31
2018-03-14T03:22:17.117Z,99.24
2018-03-14T03:24:43.342Z,99.19
2018-03-14T03:27:09.473Z,99.23
2018-03-14T03:29:35.593Z,99.31
2018-03-14T03:32:01.758Z,99.37
2018-03-14T03:34:28.003Z,99.43
2018-03-14T03:36:54.196Z,99.57
2018-03-14T03:39:20.374Z,99.65
2018-03-14T03:41:46.508Z,99.80
2018-03-14T03:44:12.658Z,99.95
2018-03-14T03:46:38.936Z,100.00
2018-03-14T03:49:05.182Z,100.00
2018-03-14T03:51:31.317Z,100.00
2018-03-14T03:53:57.497Z,100.00
2018-03-14T03:56:23.672Z,100.00
2018-03-14T03:58:49.824Z,100.00
2018-03-14T04:01:15.961Z,100.00
2018-03-14T04:03:49.094Z,100.00
2018-03-14T04:06:15.237Z,100.00
2018-03-14T04:08:41.401Z,100.00
2018-03-14T04:11:07.574Z,99.97
2018-03-14T04:13:33.726Z,100.00
2018-03-14T04:15:59.988Z,100.00
2018-03-14T04:18:26.190Z,100.00
2018-03-14T04:20:52.695Z,100.00
2018-03-14T04:23:18.871Z,100.00
2018-03-14T04:25:45.047Z,100.00
2018-03-14T04:28:11.217Z,100.00
2018-03-14T04:30:37.385Z,100.00
2018-03-14T04:33:03.536Z,99.97
2018-03-14T04:35:29.750Z,99.95
2018-03-14T04:37:55.965Z,100.00
2018-03-14T04:40:22.199Z,100.00
2018-03-14T04:42:48.339Z,100.00
2018-03-14T04:45:14.557Z,100.00
2018-03-14T04:47:40.733Z,100.00
2018-03-14T04:50:06.878Z,100.00
2018-03-14T04:52:33.049Z,100.00
2018-03-14T04:54:59.255Z,100.00
2018-03-14T04:57:25.438Z,100.00
2018-03-14T04:59:51.584Z,100.00
2018-03-14T05:02:17.817Z,100.00
2018-03-14T05:04:43.986Z,100.00
2018-03-14T05:07:10.141Z,100.00
2018-03-14T05:09:36.321Z,100.00
2018-03-14T05:12:02.481Z,100.00
2018-03-14T05:14:28.651Z,100.00
2018-03-14T05:16:55.021Z,100.00
2018-03-14T05:19:21.247Z,100.00
2018-03-14T05:21:47.443Z,100.00
2018-03-14T05:24:13.656Z,100.00
2018-03-14T05:26:39.921Z,100.00
2018-03-14T05:29:06.069Z,100.00
2018-03-14T05:31:32.202Z,100.00
2018-03-14T05:33:58.431Z,100.00
2018-03-14T05:36:24.616Z,100.00
2018-03-14T05:38:50.768Z,100.00
2018-03-14T05:41:16.992Z,100.00
2018-03-14T05:43:43.209Z,100.00
2018-03-14T05:46:09.413Z,100.00
2018-03-14T05:48:35.625Z,100.00
2018-03-14T05:51:01.740Z,100.00
2018-03-14T05:53:27.894Z,100.00
2018-03-14T05:55:54.162Z,100.00
2018-03-14T05:58:20.327Z,100.00
2018-03-14T06:00:46.493Z,100.00
2018-03-14T06:03:12.759Z,100.00
2018-03-14T06:05:38.964Z,100.00
2018-03-14T06:08:05.131Z,100.00
2018-03-14T06:10:31.268Z,100.00
2018-03-14T06:12:57.470Z,100.00
2018-03-14T06:15:23.794Z,100.00
2018-03-14T06:17:50.008Z,100.00
2018-03-14T06:20:16.162Z,100.00
2018-03-14T06:22:42.318Z,100.00
2018-03-14T06:25:08.560Z,100.00
2018-03-14T06:27:34.717Z,100.00
2018-03-14T06:30:00.898Z,100.00
2018-03-14T06:32:27.079Z,100.00
2018-03-14T06:34:53.241Z,100.00
2018-03-14T06:37:19.478Z,100.00
2018-03-14T06:39:45.626Z,100.00
2018-03-14T06:42:11.761Z,100.00
2018-03-14T06:44:37.947Z,100.00
2018-03-14T06:47:04.164Z,100.00
2018-03-14T06:49:30.368Z,100.00
2018-03-14T06:51:56.592Z,100.00
2018-03-14T06:54:22.738Z,100.00
2018-03-14T06:56:48.969Z,100.00
2018-03-14T06:59:27.299Z,100.00
2018-03-14T07:02:05.609Z,100.00
2018-03-14T07:04:37.959Z,100.00
2018-03-14T07:07:04.121Z,100.00
2018-03-14T07:09:30.266Z,100.00
2018-03-14T07:11:56.510Z,99.99
2018-03-14T07:14:22.772Z,99.94
2018-03-14T07:16:48.959Z,99.80
2018-03-14T07:19:15.179Z,99.60
2018-03-14T07:21:41.309Z,99.65
2018-03-14T07:24:07.471Z,99.56
2018-03-14T07:26:33.745Z,99.62
2018-03-14T07:28:59.900Z,99.39
2018-03-14T07:31:26.019Z,99.37
2018-03-14T07:33:52.184Z,99.20
2018-03-14T07:36:18.370Z,99.11
2018-03-14T07:38:44.540Z,98.92
2018-03-14T07:41:10.732Z,98.92
2018-03-14T07:43:36.898Z,99.06
2018-03-14T07:46:03.191Z,99.30
2018-03-14T07:48:29.409Z,99.30
2018-03-14T07:50:55.587Z,99.44
2018-03-14T07:53:21.743Z,99.55
2018-03-14T07:55:47.995Z,99.55
2018-03-14T07:58:14.193Z,99.57
2018-03-14T08:00:40.317Z,99.13
2018-03-14T08:03:06.508Z,98.82
2018-03-14T08:05:32.710Z,98.55
2018-03-14T08:07:58.859Z,98.37
2018-03-14T08:10:25.038Z,97.30
2018-03-14T08:12:51.183Z,97.19
2018-03-14T08:15:17.333Z,97.12
2018-03-14T08:17:43.603Z,95.88
2018-03-14T08:20:09.740Z,95.02
2018-03-14T08:22:35.927Z,93.86
2018-03-14T08:25:02.167Z,92.41
2018-03-14T08:27:28.597Z,89.79
2018-03-14T08:29:54.725Z,85.92
2018-03-14T08:32:20.862Z,84.24
2018-03-14T08:34:47.075Z,77.68
2018-03-14T08:37:13.367Z,72.55
2018-03-14T08:39:39.487Z,69.81
2018-03-14T08:42:05.659Z,66.34
2018-03-14T08:44:31.846Z,62.42
2018-03-14T08:46:58.025Z,60.47
2018-03-14T08:49:24.226Z,58.24
2018-03-14T08:51:50.441Z,57.58
2018-03-14T08:54:16.621Z,58.67
2018-03-14T08:56:42.919Z,55.76
2018-03-14T08:59:09.114Z,57.36
2018-03-14T09:01:35.258Z,58.21
2018-03-14T09:04:01.429Z,58.95
2018-03-14T09:06:27.721Z,61.49
2018-03-14T09:08:53.878Z,61.80
2018-03-14T09:11:20.039Z,64.88
2018-03-14T09:13:46.214Z,64.67
2018-03-14T09:16:12.447Z,65.49
2018-03-14T09:18:38.889Z,66.41
2018-03-14T09:21:05.222Z,66.25
2018-03-14T09:23:31.411Z,67.95
2018-03-14T09:25:57.641Z,70.53
2018-03-14T09:28:24.078Z,70.54
2018-03-14T09:30:50.258Z,70.55
2018-03-14T09:33:16.424Z,71.30
2018-03-14T09:35:42.685Z,70.72
2018-03-14T09:38:08.815Z,70.38
2018-03-14T09:40:35.002Z,71.23
2018-03-14T09:43:01.198Z,71.85
2018-03-14T09:45:27.334Z,71.17
2018-03-14T09:47:53.530Z,69.93
2018-03-14T09:50:19.692Z,70.00
2018-03-14T09:52:45.850Z,70.21
2018-03-14T09:55:12.020Z,69.14
2018-03-14T09:57:38.247Z,69.00
2018-03-14T10:00:04.430Z,67.89
2018-03-14T10:02:30.570Z,68.36
2018-03-14T10:04:56.742Z,67.46
2018-03-14T10:07:22.973Z,68.36
2018-03-14T10:09:49.097Z,66.80
2018-03-14T10:12:15.635Z,68.58
2018-03-14T10:14:41.785Z,67.90
2018-03-14T10:17:07.981Z,69.00
2018-03-14T10:19:34.176Z,69.82
2018-03-14T10:22:00.328Z,70.90
2018-03-14T10:24:26.532Z,71.84
2018-03-14T10:26:52.822Z,71.40
2018-03-14T10:29:19.008Z,71.61
2018-03-14T10:31:45.195Z,69.56
2018-03-14T10:34:11.410Z,70.73
2018-03-14T10:36:38.776Z,71.24
2018-03-14T10:39:05.245Z,71.17
2018-03-14T10:41:31.443Z,72.32
2018-03-14T10:43:59.102Z,72.22
2018-03-14T10:46:25.323Z,72.06
2018-03-14T10:48:51.540Z,70.51
2018-03-14T10:51:17.663Z,70.28
2018-03-14T10:53:45.421Z,71.63
2018-03-14T10:56:11.650Z,71.61
2018-03-14T10:58:37.882Z,70.43
2018-03-14T11:01:10.055Z,71.95
2018-03-14T11:03:40.161Z,71.75
2018-03-14T11:06:06.376Z,71.75
2018-03-14T11:08:32.592Z,70.73
2018-03-14T11:10:58.799Z,72.91
2018-03-14T11:13:24.929Z,72.40
2018-03-14T11:15:51.086Z,70.70
2018-03-14T11:18:17.834Z,71.20
2018-03-14T11:20:45.174Z,70.44
2018-03-14T11:23:11.351Z,69.38
2018-03-14T11:25:37.548Z,69.83
2018-03-14T11:28:03.814Z,69.74
2018-03-14T11:30:29.942Z,68.93
2018-03-14T11:32:56.224Z,70.32
2018-03-14T11:35:22.384Z,68.98
2018-03-14T11:37:49.621Z,67.27
2018-03-14T11:40:19.847Z,67.69
2018-03-14T11:42:45.995Z,63.41
2018-03-14T11:45:12.242Z,63.75
2018-03-14T11:47:39.203Z,63.64
2018-03-14T11:50:05.389Z,64.56
2018-03-14T11:52:31.612Z,66.00
2018-03-14T11:54:57.806Z,64.76
2018-03-14T11:57:23.984Z,61.03
2018-03-14T11:59:50.116Z,60.24
2018-03-14T12:02:16.285Z,59.61
2018-03-14T12:04:43.286Z,59.47
2018-03-14T12:07:09.488Z,59.22
2018-03-14T12:09:35.645Z,57.39
2018-03-14T12:12:01.881Z,57.62
2018-03-14T12:14:28.103Z,56.84
2018-03-14T12:16:54.340Z,57.48
2018-03-14T12:19:20.548Z,58.34
2018-03-14T12:21:46.688Z,58.19
2018-03-14T12:24:12.885Z,58.95
2018-03-14T12:26:39.131Z,58.35
2018-03-14T12:29:05.283Z,58.19
2018-03-14T12:31:31.476Z,58.35
2018-03-14T12:33:57.668Z,57.13
2018-03-14T12:36:23.805Z,57.40
2018-03-14T12:38:50.044Z,58.49
2018-03-14T12:41:16.247Z,56.41
2018-03-14T12:43:42.425Z,54.32
2018-03-14T12:46:08.622Z,55.27
2018-03-14T12:48:34.806Z,54.47
2018-03-14T12:51:01.048Z,52.94
2018-03-14T12:53:27.209Z,50.95
2018-03-14T12:55:53.378Z,50.11
2018-03-14T12:58:19.618Z,50.00
2018-03-14T13:00:45.759Z,46.33
2018-03-14T13:03:12.001Z,44.40
2018-03-14T13:05:38.145Z,42.52
2018-03-14T13:08:04.348Z,39.80
2018-03-14T13:10:30.487Z,38.31
2018-03-14T13:12:56.670Z,37.74
2018-03-14T13:15:22.896Z,39.54
2018-03-14T13:17:49.107Z,40.09
2018-03-14T13:20:15.250Z,40.26
2018-03-14T13:22:41.419Z,39.48
2018-03-14T13:25:07.617Z,37.87
2018-03-14T13:27:33.829Z,38.38
2018-03-14T13:30:00.021Z,35.36
2018-03-14T13:32:26.197Z,36.05
2018-03-14T13:34:52.454Z,36.74
2018-03-14T13:37:18.627Z,38.38
2018-03-14T13:39:44.801Z,37.94
2018-03-14T13:42:10.956Z,37.03
2018-03-14T13:44:37.173Z,37.36
2018-03-14T13:47:03.434Z,37.17
2018-03-14T13:49:29.639Z,38.81
2018-03-14T13:51:55.782Z,40.68
2018-03-14T13:54:21.941Z,42.53
2018-03-14T13:56:48.139Z,45.69
2018-03-14T13:59:14.413Z,44.68
2018-03-14T14:01:40.595Z,43.19
2018-03-14T14:04:06.756Z,42.31
2018-03-14T14:06:32.953Z,42.48
2018-03-14T14:08:59.152Z,43.77
2018-03-14T14:11:25.681Z,44.70
2018-03-14T14:13:51.907Z,45.82
2018-03-14T14:16:18.047Z,47.07
2018-03-14T14:18:44.243Z,46.89
2018-03-14T14:21:10.427Z,46.62
2018-03-14T14:23:36.601Z,45.22
2018-03-14T14:26:02.793Z,44.69
2018-03-14T14:28:29.019Z,43.88
2018-03-14T14:30:55.165Z,45.99
2018-03-14T14:33:21.344Z,45.12
2018-03-14T14:35:47.529Z,45.36
2018-03-14T14:38:13.740Z,45.24
2018-03-14T14:40:39.911Z,45.07
2018-03-14T14:43:06.697Z,44.53
2018-03-14T14:45:32.834Z,45.69
2018-03-14T14:47:59.743Z,46.87
2018-03-14T14:50:26.100Z,46.09
2018-03-14T14:52:52.222Z,44.92
2018-03-14T14:55:18.408Z,47.12
2018-03-14T14:57:45.595Z,46.36
2018-03-14T15:00:11.736Z,45.68
2018-03-14T15:02:37.874Z,45.05
2018-03-14T15:05:04.136Z,45.76
2018-03-14T15:07:30.444Z,46.09
2018-03-14T15:09:56.618Z,47.33
2018-03-14T15:12:22.813Z,46.87
2018-03-14T15:14:49.007Z,47.44
2018-03-14T15:17:15.324Z,46.38
2018-03-14T15:19:41.553Z,47.89
2018-03-14T15:22:07.715Z,48.09
2018-03-14T15:24:33.875Z,50.29
2018-03-14T15:27:00.029Z,46.74
2018-03-14T15:29:26.249Z,48.34
2018-03-14T15:31:52.376Z,50.02
2018-03-14T15:34:18.558Z,49.43
2018-03-14T15:36:44.758Z,49.57
2018-03-14T15:39:10.952Z,50.20
2018-03-14T15:41:37.108Z,52.26
2018-03-14T15:44:03.308Z,51.57
2018-03-14T15:46:29.437Z,52.44
2018-03-14T15:48:55.680Z,52.63
2018-03-14T15:51:21.877Z,52.32
2018-03-14T15:53:48.081Z,52.22
2018-03-14T15:56:14.282Z,52.47
2018-03-14T15:58:40.488Z,53.23
2018-03-14T16:01:06.664Z,54.69
2018-03-14T16:03:32.865Z,54.14
2018-03-14T16:05:58.998Z,54.59
2018-03-14T16:08:25.180Z,54.56
2018-03-14T16:10:51.400Z,53.89
2018-03-14T16:13:17.545Z,53.72
2018-03-14T16:15:43.699Z,54.73
2018-03-14T16:18:09.930Z,54.29
2018-03-14T16:20:36.101Z,54.40
2018-03-14T16:23:02.307Z,53.18
2018-03-14T16:25:28.505Z,52.61
2018-03-14T16:27:54.642Z,53.54
2018-03-14T16:30:20.860Z,53.65
2018-03-14T16:32:47.024Z,53.27
2018-03-14T16:35:13.333Z,53.04
2018-03-14T16:37:39.535Z,54.19
2018-03-14T16:40:05.754Z,54.24
2018-03-14T16:42:31.896Z,54.68
2018-03-14T16:44:58.049Z,53.56
2018-03-14T16:47:24.248Z,53.92
2018-03-14T16:49:50.720Z,55.57
2018-03-14T16:52:16.875Z,54.60
2018-03-14T16:54:43.054Z,55.11
2018-03-14T16:57:09.226Z,56.24
2018-03-14T16:59:35.678Z,55.25
2018-03-14T17:02:01.879Z,57.09
2018-03-14T17:04:28.057Z,57.02
2018-03-14T17:06:54.222Z,56.64
2018-03-14T17:09:20.429Z,57.15
2018-03-14T17:11:46.623Z,56.89
2018-03-14T17:14:12.765Z,57.05
2018-03-14T17:16:38.939Z,57.29
2018-03-14T17:19:05.168Z,56.47
2018-03-14T17:21:31.314Z,56.36
2018-03-14T17:23:57.496Z,56.57
2018-03-14T17:26:23.620Z,57.92
2018-03-14T17:28:49.899Z,57.55
2018-03-14T17:31:16.061Z,58.26
2018-03-14T17:33:42.215Z,59.23
2018-03-14T17:36:08.363Z,59.21
2018-03-14T17:38:34.683Z,59.70
2018-03-14T17:41:00.782Z,59.24
2018-03-14T17:43:26.986Z,60.22
2018-03-14T17:45:53.123Z,61.05
2018-03-14T17:48:19.764Z,62.20
2018-03-14T17:50:45.993Z,62.44
2018-03-14T17:53:12.149Z,62.14
2018-03-14T17:55:38.348Z,62.52
2018-03-14T17:58:04.542Z,62.09
2018-03-14T18:00:30.778Z,62.81
2018-03-14T18:02:56.938Z,62.61
2018-03-14T18:05:23.093Z,63.37
2018-03-14T18:07:49.293Z,63.16
2018-03-14T18:10:15.576Z,62.96
2018-03-14T18:12:41.776Z,61.63
2018-03-14T18:15:07.967Z,62.32
2018-03-14T18:17:34.167Z,62.46
2018-03-14T18:20:00.411Z,62.44
2018-03-14T18:22:26.601Z,62.30
2018-03-14T18:24:52.784Z,62.59
2018-03-14T18:27:18.950Z,62.99
2018-03-14T18:29:45.190Z,62.64
2018-03-14T18:32:11.349Z,62.94
2018-03-14T18:34:37.520Z,62.74
2018-03-14T18:37:03.758Z,62.74
2018-03-14T18:39:29.980Z,64.17
2018-03-14T18:41:56.148Z,63.14
2018-03-14T18:44:22.273Z,63.14
2018-03-14T18:46:48.609Z,63.16
2018-03-14T18:49:14.866Z,63.15
2018-03-14T18:51:41.077Z,63.27
2018-03-14T18:54:07.285Z,63.40
2018-03-14T18:56:33.479Z,63.18
2018-03-14T18:58:59.741Z,63.23
2018-03-14T19:01:25.964Z,63.66
2018-03-14T19:03:52.161Z,63.63
2018-03-14T19:06:18.312Z,64.02
2018-03-14T19:08:44.571Z,63.64
2018-03-14T19:11:10.772Z,64.00
2018-03-14T19:13:36.990Z,64.59
2018-03-14T19:16:03.263Z,64.61
2018-03-14T19:18:29.452Z,64.48
2018-03-14T19:20:55.620Z,64.53
2018-03-14T19:23:21.791Z,64.93
2018-03-14T19:25:48.013Z,65.28
2018-03-14T19:28:14.184Z,65.08
2018-03-14T19:30:40.375Z,64.63
2018-03-14T19:33:06.612Z,65.38
2018-03-14T19:35:32.760Z,65.29
2018-03-14T19:37:58.907Z,65.77
2018-03-14T19:40:25.156Z,65.83
2018-03-14T19:42:51.259Z,65.54
2018-03-14T19:45:17.399Z,65.16
2018-03-14T19:47:43.644Z,65.43
2018-03-14T19:50:09.984Z,65.04
2018-03-14T19:52:36.154Z,65.49
2018-03-14T19:55:02.390Z,64.57
2018-03-14T19:57:28.523Z,64.47
2018-03-14T19:59:54.765Z,64.77
2018-03-14T20:02:21.001Z,65.21
2018-03-14T20:04:47.258Z,64.88
2018-03-14T20:07:13.365Z,64.56
2018-03-14T20:09:39.739Z,65.04
2018-03-14T20:12:05.920Z,64.34
2018-03-14T20:14:32.095Z,65.46
2018-03-14T20:16:58.225Z,65.18
2018-03-14T20:19:25.382Z,64.70
2018-03-14T20:21:51.512Z,64.83
2018-03-14T20:24:17.632Z,65.06
2018-03-14T20:26:43.790Z,65.01
2018-03-14T20:29:09.992Z,64.15
2018-03-14T20:31:36.099Z,64.26
2018-03-14T20:34:02.289Z,64.65
2018-03-14T20:36:28.613Z,64.48
2018-03-14T20:38:54.917Z,64.94
2018-03-14T20:41:21.152Z,65.09
2018-03-14T20:43:47.271Z,64.40
2018-03-14T20:46:13.583Z,65.07
2018-03-14T20:48:39.760Z,64.39
2018-03-14T20:51:05.933Z,64.74
2018-03-14T20:53:32.122Z,65.10
2018-03-14T20:55:58.279Z,64.53
2018-03-14T20:58:24.417Z,64.67
2018-03-14T21:00:50.599Z,65.04
2018-03-14T21:03:16.712Z,64.84
2018-03-14T21:05:42.833Z,64.70
2018-03-14T21:08:09.013Z,65.16
2018-03-14T21:10:35.204Z,65.48
2018-03-14T21:13:01.311Z,65.67
2018-03-14T21:15:27.473Z,65.79
2018-03-14T21:17:53.651Z,65.64
2018-03-14T21:20:19.819Z,65.20
2018-03-14T21:22:45.973Z,65.15
2018-03-14T21:25:12.059Z,65.37
2018-03-14T21:27:38.173Z,65.66
2018-03-14T21:30:04.374Z,65.97
2018-03-14T21:32:30.492Z,66.03
2018-03-14T21:34:56.585Z,66.00
2018-03-14T21:37:22.716Z,65.78
2018-03-14T21:39:48.869Z,65.97
2018-03-14T21:42:14.997Z,66.71
2018-03-14T21:44:41.135Z,66.02
2018-03-14T21:47:07.285Z,65.90
2018-03-14T21:49:33.438Z,65.24
2018-03-14T21:51:59.586Z,65.37
2018-03-14T21:54:25.733Z,65.30
2018-03-14T21:56:51.849Z,65.34
2018-03-14T21:59:17.970Z,65.52
2018-03-14T22:01:44.114Z,66.04
2018-03-14T22:04:10.195Z,65.27
2018-03-14T22:06:36.332Z,66.12
2018-03-14T22:09:02.475Z,66.15
2018-03-14T22:11:28.744Z,65.58
2018-03-14T22:13:54.821Z,65.13
2018-03-14T22:16:20.929Z,66.16
2018-03-14T22:18:47.100Z,65.70
2018-03-14T22:21:13.316Z,64.79
2018-03-14T22:23:39.428Z,65.45
2018-03-14T22:26:05.557Z,65.56
2018-03-14T22:28:31.703Z,65.06
2018-03-14T22:30:57.849Z,66.12
2018-03-14T22:33:23.935Z,65.86
2018-03-14T22:35:50.053Z,66.11
2018-03-14T22:38:16.187Z,66.80
2018-03-14T22:40:42.318Z,66.67
2018-03-14T22:43:08.407Z,66.77
2018-03-14T22:45:34.530Z,66.82
2018-03-14T22:48:00.709Z,66.58
2018-03-14T22:50:26.882Z,66.62
2018-03-14T22:52:53.021Z,66.68
2018-03-14T22:55:19.115Z,67.03
2018-03-14T22:57:45.218Z,67.14
2018-03-14T23:00:11.373Z,67.15
2018-03-14T23:02:37.475Z,67.32
2018-03-14T23:05:03.635Z,67.64
2018-03-14T23:07:29.765Z,67.71
2018-03-14T23:09:55.892Z,66.95
2018-03-14T23:12:21.994Z,67.71
2018-03-14T23:14:48.108Z,67.31
2018-03-14T23:17:14.252Z,67.66
2018-03-14T23:19:40.415Z,67.38
2018-03-14T23:22:06.590Z,67.83
2018-03-14T23:24:32.715Z,68.12
2018-03-14T23:26:58.820Z,67.97
2018-03-14T23:29:24.917Z,68.12
2018-03-14T23:31:51.135Z,68.36
2018-03-14T23:34:17.227Z,68.59
2018-03-14T23:36:43.324Z,68.51
2018-03-14T23:39:09.476Z,68.73
2018-03-14T23:41:35.652Z,69.07
2018-03-14T23:44:01.759Z,69.04
2018-03-14T23:46:27.884Z,68.99
2018-03-14T23:48:54.046Z,68.60
2018-03-14T23:51:20.210Z,68.89
2018-03-14T23:53:46.318Z,68.81
2018-03-14T23:56:12.402Z,69.10
2018-03-14T23:58:38.558Z,69.09
